Time;durP1;ratioP1;P1;durP2;ratioP2;P2;SDS_P1;SDS_P2;PMS_P1;PMS_P2;Temp;Humidity;BMP_temperature;BMP_pressure;BME280_temperature;BME280_humidity;BME280_pressure;Samples;Min_cycle;Max_cycle;Signal;HPM_P1;HPM_P2
2022/11/27 00:01:36;;;;;;;0.03;0.03;;;4.50;99.90;226.50;231333.00;;;;5013798;28;20223;-76
2022/11/27 00:04:05;;;;;;;0.10;0.10;;;4.40;99.90;226.50;231333.00;;;;5013916;28;20204;-76
2022/11/27 00:06:37;;;;;;;0.10;0.10;;;4.40;99.90;226.50;231333.00;;;;5013826;28;20192;-76
2022/11/27 00:09:08;;;;;;;0.10;0.10;;;4.40;99.90;226.50;231333.00;;;;5013366;28;20192;-75
2022/11/27 00:11:38;;;;;;;0.10;0.10;;;4.40;99.90;226.50;231333.00;;;;5013727;28;20204;-76
2022/11/27 00:14:07;;;;;;;0.10;0.10;;;4.50;99.90;226.50;231333.00;;;;5013436;28;20216;-75
2022/11/27 00:16:35;;;;;;;0.10;0.10;;;4.50;99.90;226.50;231333.00;;;;5021580;28;20226;-76
2022/11/27 00:19:04;;;;;;;0.10;0.10;;;4.60;99.90;226.50;231333.00;;;;5022158;28;20234;-75
2022/11/27 00:21:35;;;;;;;0.03;0.03;;;4.70;99.90;226.50;231333.00;;;;5017752;28;20223;-77
2022/11/27 00:24:07;;;;;;;0.10;0.10;;;4.60;99.90;226.50;231333.00;;;;5013461;28;20547;-76
2022/11/27 00:26:36;;;;;;;0.10;0.10;;;4.80;99.90;226.50;231333.00;;;;5028523;28;20196;-76
2022/11/27 00:29:06;;;;;;;0.10;0.10;;;4.70;99.90;226.50;231333.00;;;;5012981;28;20246;-75
2022/11/27 00:31:36;;;;;;;0.10;0.10;;;4.50;99.90;226.50;231333.00;;;;5013130;28;20743;-76
2022/11/27 00:34:08;;;;;;;0.10;0.10;;;4.40;99.90;226.50;231333.00;;;;5012924;28;20207;-76
2022/11/27 00:36:38;;;;;;;0.10;0.10;;;4.20;99.90;226.50;231333.00;;;;5028267;28;20207;-75
2022/11/27 00:39:12;;;;;;;0.10;0.10;;;4.20;99.90;226.50;231333.00;;;;5012771;28;20200;-76
2022/11/27 00:41:40;;;;;;;0.10;0.10;;;4.20;99.90;226.50;231333.00;;;;5012853;28;20699;-76
2022/11/27 00:44:08;;;;;;;0.10;0.10;;;4.20;99.90;226.50;231333.00;;;;5013119;28;20208;-76
2022/11/27 00:46:36;;;;;;;0.10;0.10;;;4.10;99.90;226.50;231333.00;;;;5012715;28;20196;-75
2022/11/27 00:49:06;;;;;;;0.10;0.10;;;4.20;99.90;226.50;231333.00;;;;5032168;28;20260;-76
2022/11/27 00:51:36;;;;;;;0.10;0.10;;;4.00;99.90;226.50;231333.00;;;;5013638;28;20204;-76
2022/11/27 00:54:06;;;;;;;0.10;0.10;;;3.90;99.90;226.50;231333.00;;;;5012699;28;20265;-76
2022/11/27 00:56:37;;;;;;;0.10;0.10;;;4.00;99.90;226.50;160067.00;;;;5012702;28;20188;-76
2022/11/27 00:59:07;;;;;;;0.10;0.10;;;4.10;99.90;226.50;231333.00;;;;5012596;28;20208;-76
2022/11/27 01:01:40;;;;;;;0.10;0.10;;;4.10;99.90;226.50;231333.00;;;;5012700;28;20227;-76
2022/11/27 01:04:12;;;;;;;0.10;0.10;;;4.00;99.90;226.50;231333.00;;;;5013243;28;20321;-77
2022/11/27 01:06:43;;;;;;;0.10;0.10;;;4.00;99.90;226.50;231333.00;;;;5012802;28;20663;-77
2022/11/27 01:09:12;;;;;;;0.10;0.10;;;3.90;99.90;226.50;231333.00;;;;5012338;28;20211;-78
2022/11/27 01:11:41;;;;;;;0.10;0.10;;;3.90;99.90;226.50;231333.00;;;;5027874;28;20231;-77
2022/11/27 01:14:13;;;;;;;0.10;0.10;;;3.80;99.90;226.50;231333.00;;;;5012607;28;20731;-77
2022/11/27 01:16:41;;;;;;;0.10;0.10;;;3.80;99.90;226.50;231333.00;;;;5013543;28;20194;-77
2022/11/27 01:19:12;;;;;;;0.10;0.10;;;3.80;99.90;226.50;231333.00;;;;5014943;28;20206;-77
2022/11/27 01:21:42;;;;;;;0.10;0.10;;;3.80;99.90;226.50;231333.00;;;;5016923;28;20266;-77
2022/11/27 01:24:13;;;;;;;0.10;0.10;;;3.90;99.90;226.50;231333.00;;;;5016679;28;20242;-77
2022/11/27 01:26:43;;;;;;;0.10;0.10;;;3.80;99.90;226.50;231333.00;;;;5012404;28;20203;-77
2022/11/27 01:29:12;;;;;;;0.10;0.10;;;3.80;99.90;226.50;231333.00;;;;5011949;28;20199;-77
2022/11/27 01:31:40;;;;;;;0.10;0.10;;;3.70;99.90;226.50;231333.00;;;;5012272;28;20250;-77
2022/11/27 01:34:14;;;;;;;0.10;0.10;;;3.60;99.90;226.50;231333.00;;;;5012537;28;20207;-77
2022/11/27 01:36:44;;;;;;;0.10;0.10;;;3.50;99.90;226.50;231333.00;;;;5012150;28;20250;-77
2022/11/27 01:39:17;;;;;;;0.10;0.10;;;3.50;99.90;226.50;231333.00;;;;5012137;28;20258;-77
2022/11/27 01:41:48;;;;;;;0.10;0.10;;;3.30;99.90;226.50;231333.00;;;;5012118;28;20549;-77
2022/11/27 01:44:49;;;;;;;0.10;0.10;;;3.30;99.90;226.50;231333.00;;;;5027505;28;20231;-77
2022/11/27 01:47:30;;;;;;;0.10;0.10;;;3.40;99.90;226.50;231333.00;;;;5011994;28;20237;-76
2022/11/27 01:50:09;;;;;;;0.10;0.10;;;3.30;99.90;226.50;231333.00;;;;5012080;28;20203;-77
2022/11/27 01:52:47;;;;;;;0.10;0.10;;;3.20;99.90;226.50;231333.00;;;;5012323;28;20253;-76
2022/11/27 01:55:25;;;;;;;0.10;0.10;;;3.30;99.90;226.50;231333.00;;;;5012085;28;20188;-77
2022/11/27 01:58:00;;;;;;;0.10;0.10;;;3.20;99.90;226.50;231333.00;;;;5011943;28;20223;-77
2022/11/27 02:00:28;;;;;;;0.10;0.10;;;3.20;99.90;226.50;231333.00;;;;5011972;28;20191;-77
2022/11/27 02:02:56;;;;;;;0.10;0.10;;;3.20;99.90;226.50;231333.00;;;;5012064;28;20188;-77
2022/11/27 02:05:27;;;;;;;0.10;0.10;;;3.20;99.90;226.50;231333.00;;;;5011962;28;20198;-78
2022/11/27 02:08:00;;;;;;;0.10;0.10;;;3.10;99.90;226.50;231333.00;;;;5011949;28;20729;-77
2022/11/27 02:10:44;;;;;;;0.10;0.10;;;3.10;99.90;226.50;231333.00;;;;5015776;28;20202;-77
2022/11/27 02:13:17;;;;;;;0.10;0.10;;;3.20;99.90;226.50;231333.00;;;;5016401;28;20211;-77
2022/11/27 02:15:54;;;;;;;0.10;0.10;;;3.20;99.90;226.50;231333.00;;;;5013166;28;20192;-77
2022/11/27 02:18:33;;;;;;;0.10;0.10;;;3.30;99.90;226.50;231333.00;;;;5011556;28;20192;-77
2022/11/27 02:21:08;;;;;;;0.10;0.10;;;3.20;99.90;226.50;231333.00;;;;5011839;28;20216;-76
2022/11/27 02:24:10;;;;;;;0.10;0.10;;;3.10;99.90;226.50;231333.00;;;;5026815;28;20694;-77
2022/11/27 02:27:18;;;;;;;0.10;0.10;;;3.10;99.90;226.50;231333.00;;;;5011758;28;20199;-77
2022/11/27 02:29:54;;;;;;;0.10;0.10;;;3.20;99.90;226.50;231333.00;;;;5011561;28;20211;-77
2022/11/27 02:32:29;;;;;;;0.10;0.10;;;3.20;99.90;226.50;231333.00;;;;5011603;28;20596;-77
2022/11/27 02:35:06;;;;;;;0.10;0.10;;;3.20;99.90;226.50;231333.00;;;;5012006;28;20622;-77
2022/11/27 02:37:43;;;;;;;0.10;0.10;;;3.10;99.90;226.50;231333.00;;;;5015341;28;20210;-77
2022/11/27 02:40:17;;;;;;;0.10;0.10;;;3.10;99.90;226.50;231333.00;;;;5015733;28;20246;-77
2022/11/27 02:42:52;;;;;;;0.10;0.10;;;3.20;99.90;226.50;231333.00;;;;5019236;28;20277;-77
2022/11/27 02:45:28;;;;;;;0.10;0.10;;;3.10;99.90;226.50;231333.00;;;;5020699;28;20191;-76
2022/11/27 02:47:58;;;;;;;0.10;0.10;;;3.10;99.90;226.50;231333.00;;;;5018136;28;20600;-77
2022/11/27 02:50:30;;;;;;;0.10;0.10;;;3.00;99.90;226.50;231333.00;;;;5023235;28;20192;-77
2022/11/27 02:53:03;;;;;;;0.10;0.10;;;3.00;99.90;226.50;231333.00;;;;5022939;28;20326;-76
2022/11/27 02:55:35;;;;;;;0.00;0.00;;;3.00;99.90;226.50;231333.00;;;;5015082;28;20246;-76
2022/11/27 02:58:13;;;;;;;0.10;0.10;;;3.10;99.90;226.50;231333.00;;;;5014943;28;20188;-77
2022/11/27 03:00:45;;;;;;;0.10;0.10;;;2.90;99.90;226.50;231333.00;;;;5013821;28;20266;-76
2022/11/27 03:03:21;;;;;;;0.10;0.10;;;3.00;99.90;226.50;231333.00;;;;5014960;28;20211;-77
2022/11/27 03:05:53;;;;;;;0.10;0.10;;;3.00;99.90;226.50;231333.00;;;;5015233;28;20254;-77
2022/11/27 03:08:32;;;;;;;0.10;0.10;;;3.00;99.90;226.50;231333.00;;;;5013994;28;20245;-77
2022/11/27 03:11:05;;;;;;;0.10;0.10;;;2.90;99.90;226.50;231333.00;;;;5014857;28;20188;-76
2022/11/27 03:13:37;;;;;;;0.10;0.10;;;2.90;99.90;226.50;231333.00;;;;5015098;28;20236;-76
2022/11/27 03:16:14;;;;;;;0.10;0.10;;;2.90;99.90;226.50;231333.00;;;;5015307;28;20245;-77
2022/11/27 03:18:52;;;;;;;0.10;0.10;;;2.90;99.90;226.50;231333.00;;;;5014459;28;20230;-76
2022/11/27 03:21:30;;;;;;;0.10;0.10;;;2.80;99.90;226.50;231333.00;;;;5014426;28;20745;-77
2022/11/27 03:23:59;;;;;;;0.10;0.10;;;2.70;99.90;226.50;231333.00;;;;5014582;28;20204;-76
2022/11/27 03:26:27;;;;;;;0.10;0.10;;;2.80;99.90;226.50;231333.00;;;;5014303;28;20199;-76
2022/11/27 03:28:59;;;;;;;0.10;0.10;;;2.80;99.90;226.50;231333.00;;;;5014107;28;20203;-76
2022/11/27 03:31:30;;;;;;;0.10;0.10;;;2.60;99.90;226.50;231333.00;;;;5014613;28;20753;-76
2022/11/27 03:33:59;;;;;;;0.10;0.10;;;2.60;99.90;226.50;231333.00;;;;5015997;28;20729;-76
2022/11/27 03:36:27;;;;;;;0.10;0.10;;;2.60;99.90;226.50;231333.00;;;;5016301;28;20188;-76
2022/11/27 03:38:56;;;;;;;0.10;0.10;;;2.60;99.90;226.50;231333.00;;;;5015998;28;20901;-76
2022/11/27 03:41:34;;;;;;;0.10;0.10;;;2.50;99.90;226.50;231333.00;;;;5017045;28;20211;-76
2022/11/27 03:44:12;;;;;;;0.10;0.10;;;2.60;99.90;226.50;231333.00;;;;5016757;28;20218;-76
2022/11/27 03:46:53;;;;;;;0.10;0.10;;;2.50;99.90;226.50;231333.00;;;;5017581;28;20196;-76
2022/11/27 03:49:33;;;;;;;0.10;0.10;;;2.60;99.90;226.50;231333.00;;;;5017091;28;20230;-76
2022/11/27 03:52:14;;;;;;;0.10;0.10;;;2.60;99.90;226.50;231333.00;;;;5014487;28;20207;-76
2022/11/27 03:54:52;;;;;;;0.10;0.10;;;2.60;99.90;226.50;231333.00;;;;5014044;28;20753;-76
2022/11/27 03:57:28;;;;;;;0.10;0.10;;;2.50;99.90;226.50;231333.00;;;;5013565;28;20195;-76
2022/11/27 04:00:04;;;;;;;0.10;0.10;;;2.50;99.90;226.50;231333.00;;;;5013859;28;20187;-76
2022/11/27 04:02:43;;;;;;;0.10;0.10;;;2.40;99.90;226.50;231333.00;;;;5013757;28;20265;-76
2022/11/27 04:05:12;;;;;;;0.10;0.10;;;2.40;99.90;226.50;231333.00;;;;5013788;28;20250;-76
2022/11/27 04:07:41;;;;;;;0.10;0.10;;;2.30;99.90;226.50;231333.00;;;;5013367;28;20219;-76
2022/11/27 04:10:12;;;;;;;0.10;0.10;;;2.30;99.90;226.50;231333.00;;;;5013558;28;20753;-76
2022/11/27 04:12:40;;;;;;;0.10;0.10;;;2.30;99.90;226.50;231333.00;;;;5013416;28;20606;-77
2022/11/27 04:15:10;;;;;;;0.10;0.10;;;2.30;99.90;226.50;231333.00;;;;5013582;28;20195;-76
2022/11/27 04:17:39;;;;;;;0.10;0.10;;;2.30;99.90;226.50;231333.00;;;;5013667;28;20192;-76
2022/11/27 04:20:10;;;;;;;0.10;0.10;;;2.20;99.90;226.50;231333.00;;;;5014094;28;20184;-77
2022/11/27 04:22:38;;;;;;;0.10;0.10;;;2.20;99.90;226.50;231333.00;;;;5014329;28;20212;-76
2022/11/27 04:25:08;;;;;;;0.10;0.10;;;2.20;99.90;226.50;231333.00;;;;5013777;28;20196;-75
2022/11/27 04:27:36;;;;;;;0.10;0.10;;;2.20;99.90;226.50;231333.00;;;;5013052;28;20215;-74
2022/11/27 04:30:05;;;;;;;0.10;0.10;;;2.20;99.90;226.50;231333.00;;;;5013138;28;20207;-76
2022/11/27 04:32:33;;;;;;;0.10;0.10;;;2.20;99.90;226.50;231333.00;;;;5013050;28;20199;-76
2022/11/27 04:35:03;;;;;;;0.10;0.10;;;2.10;99.90;226.50;231333.00;;;;5013106;28;20211;-76
2022/11/27 04:37:31;;;;;;;0.10;0.10;;;2.10;99.90;226.50;231333.00;;;;5012562;28;20683;-75
2022/11/27 04:40:00;;;;;;;0.10;0.10;;;2.10;99.90;226.50;231333.00;;;;5032288;28;20225;-75
2022/11/27 04:42:28;;;;;;;0.10;0.10;;;2.10;99.90;226.50;231333.00;;;;5032432;28;20265;-75
2022/11/27 04:44:56;;;;;;;0.10;0.10;;;2.10;99.90;226.50;231333.00;;;;5032665;28;20606;-76
2022/11/27 04:47:24;;;;;;;0.10;0.10;;;2.10;99.90;226.50;231333.00;;;;5032115;28;20245;-76
2022/11/27 04:49:52;;;;;;;0.10;0.10;;;2.10;99.90;226.50;231333.00;;;;5032397;28;20267;-75
2022/11/27 04:52:21;;;;;;;0.10;0.10;;;2.10;99.90;226.50;231333.00;;;;5032446;28;20202;-75
2022/11/27 04:54:50;;;;;;;0.15;0.15;;;2.10;99.90;226.50;231333.00;;;;5032265;28;20218;-75
2022/11/27 04:57:25;;;;;;;0.10;0.10;;;2.00;99.90;226.50;231333.00;;;;5032154;28;20195;-78
2022/11/27 04:59:53;;;;;;;0.10;0.10;;;2.10;99.90;226.50;231333.00;;;;5031465;28;20180;-76
2022/11/27 05:02:21;;;;;;;0.10;0.10;;;2.10;99.90;226.50;231333.00;;;;5032254;28;20210;-76
2022/11/27 05:04:50;;;;;;;0.10;0.10;;;2.10;99.90;226.50;231333.00;;;;5032207;28;20261;-76
2022/11/27 05:07:18;;;;;;;0.10;0.10;;;2.10;99.90;226.50;231333.00;;;;5031810;28;20195;-76
2022/11/27 05:09:47;;;;;;;0.10;0.10;;;2.10;99.90;226.50;231333.00;;;;5031713;28;20183;-75
2022/11/27 05:12:15;;;;;;;0.10;0.10;;;2.10;99.90;226.50;231333.00;;;;5032167;28;20199;-76
2022/11/27 05:14:43;;;;;;;0.10;0.10;;;2.10;99.90;226.50;231333.00;;;;5032633;28;20206;-76
2022/11/27 05:17:11;;;;;;;0.10;0.10;;;2.20;99.90;226.50;231333.00;;;;5033187;28;20187;-76
2022/11/27 05:19:40;;;;;;;0.10;0.10;;;2.10;99.90;226.50;231333.00;;;;5032243;28;20277;-76
2022/11/27 05:22:08;;;;;;;0.10;0.10;;;2.10;99.90;226.50;231333.00;;;;5032055;28;20441;-76
2022/11/27 05:24:36;;;;;;;0.10;0.10;;;2.00;99.90;226.50;231333.00;;;;5031735;28;20210;-75
2022/11/27 05:27:05;;;;;;;0.10;0.10;;;2.10;99.90;226.50;231333.00;;;;5031972;28;20206;-76
2022/11/27 05:29:34;;;;;;;0.10;0.10;;;2.10;99.90;226.50;231333.00;;;;5031535;28;20679;-76
2022/11/27 05:32:02;;;;;;;0.10;0.10;;;2.10;99.90;226.50;231333.00;;;;5031864;28;20237;-76
2022/11/27 05:34:30;;;;;;;0.10;0.10;;;2.10;99.90;226.50;231333.00;;;;5031653;28;20222;-76
2022/11/27 05:36:58;;;;;;;0.10;0.10;;;2.00;99.90;226.50;231333.00;;;;5031709;28;20261;-76
2022/11/27 05:39:26;;;;;;;0.10;0.10;;;1.90;99.90;226.50;231333.00;;;;5031437;28;20686;-76
2022/11/27 05:41:54;;;;;;;0.10;0.10;;;1.90;99.90;226.50;231333.00;;;;5031718;28;20222;-76
2022/11/27 05:44:24;;;;;;;0.10;0.10;;;1.90;99.90;226.50;231333.00;;;;5031456;28;20284;-76
2022/11/27 05:46:52;;;;;;;0.10;0.10;;;1.90;99.90;226.50;231333.00;;;;5031764;28;20663;-76
2022/11/27 05:49:20;;;;;;;0.10;0.10;;;1.80;99.90;226.50;231333.00;;;;5031464;28;20563;-76
2022/11/27 05:51:48;;;;;;;0.10;0.10;;;1.80;99.90;226.50;231333.00;;;;5031538;28;20195;-76
2022/11/27 05:54:19;;;;;;;0.10;0.10;;;1.80;99.90;226.50;231333.00;;;;5031487;28;20207;-76
2022/11/27 05:56:47;;;;;;;0.10;0.10;;;1.80;99.90;226.50;231333.00;;;;5031556;28;20249;-76
2022/11/27 05:59:15;;;;;;;0.10;0.10;;;1.80;99.90;226.50;231333.00;;;;5031491;28;20539;-76
2022/11/27 06:01:45;;;;;;;0.00;0.00;;;1.80;99.90;226.50;231333.00;;;;5031497;28;20214;-76
2022/11/27 06:04:13;;;;;;;0.10;0.10;;;1.90;99.90;226.50;231333.00;;;;5031449;28;20231;-76
2022/11/27 06:06:41;;;;;;;0.10;0.10;;;1.90;99.90;226.50;231333.00;;;;5031480;28;20240;-76
2022/11/27 06:09:09;;;;;;;0.10;0.10;;;2.00;99.90;226.50;231333.00;;;;5031111;28;20737;-76
2022/11/27 06:11:41;;;;;;;0.10;0.10;;;2.00;99.90;226.50;231333.00;;;;5034329;28;20187;-76
2022/11/27 06:14:11;;;;;;;0.10;0.10;;;2.10;99.90;226.50;231333.00;;;;5035498;28;20218;-76
2022/11/27 06:16:39;;;;;;;0.10;0.10;;;2.10;99.90;226.50;231333.00;;;;5035373;28;20272;-76
2022/11/27 06:19:08;;;;;;;0.10;0.10;;;2.10;99.90;226.50;231333.00;;;;5035081;28;20198;-76
2022/11/27 06:21:37;;;;;;;0.10;0.10;;;2.10;99.90;226.50;231333.00;;;;5036630;28;20218;-76
2022/11/27 06:24:06;;;;;;;0.10;0.10;;;2.10;99.90;226.50;231333.00;;;;5040465;28;20277;-76
2022/11/27 06:26:34;;;;;;;0.10;0.10;;;2.00;99.90;226.50;231333.00;;;;5037327;28;20199;-76
2022/11/27 06:29:03;;;;;;;0.10;0.10;;;1.90;99.90;226.50;231333.00;;;;5035326;28;20214;-76
2022/11/27 06:31:33;;;;;;;0.10;0.10;;;1.90;99.90;226.50;231333.00;;;;5035379;28;20578;-76
2022/11/27 06:34:02;;;;;;;0.10;0.10;;;1.80;99.90;226.50;231333.00;;;;5035445;28;20257;-76
2022/11/27 06:36:34;;;;;;;0.10;0.10;;;1.80;99.90;226.50;231333.00;;;;5035319;28;20194;-76
2022/11/27 06:39:05;;;;;;;0.10;0.10;;;1.70;99.90;226.50;231333.00;;;;5035360;28;20199;-76
2022/11/27 06:41:33;;;;;;;0.10;0.10;;;1.70;99.90;226.50;231333.00;;;;5036148;28;20198;-76
2022/11/27 06:44:02;;;;;;;0.10;0.10;;;1.80;99.90;226.50;231333.00;;;;5035574;28;20223;-76
2022/11/27 06:46:31;;;;;;;0.10;0.10;;;1.70;99.90;226.50;231333.00;;;;5036066;28;20188;-76
2022/11/27 06:49:00;;;;;;;0.10;0.10;;;1.70;99.90;226.50;231333.00;;;;5034886;28;20191;-76
2022/11/27 06:51:32;;;;;;;0.10;0.10;;;1.80;99.90;226.50;231333.00;;;;5035182;28;20187;-76
2022/11/27 06:54:01;;;;;;;0.10;0.10;;;1.80;99.90;226.50;231333.00;;;;5034740;28;20219;-76
2022/11/27 06:56:31;;;;;;;0.10;0.10;;;1.80;99.90;226.50;231333.00;;;;5034651;28;20221;-76
2022/11/27 06:59:01;;;;;;;0.10;0.10;;;1.80;99.90;226.50;231333.00;;;;5034451;28;20245;-76
2022/11/27 07:01:31;;;;;;;0.10;0.10;;;1.90;99.90;226.50;231333.00;;;;5034666;28;20191;-77
2022/11/27 07:03:59;;;;;;;0.10;0.10;;;1.80;99.90;226.50;231333.00;;;;5034970;28;20338;-74
2022/11/27 07:06:28;;;;;;;0.10;0.10;;;1.80;99.90;226.50;231333.00;;;;5034663;28;20187;-75
2022/11/27 07:08:58;;;;;;;0.10;0.10;;;1.80;99.90;226.50;231333.00;;;;5034782;28;20199;-74
2022/11/27 07:11:30;;;;;;;0.10;0.10;;;1.80;99.90;226.50;231333.00;;;;5034688;28;20273;-74
2022/11/27 07:14:01;;;;;;;0.10;0.10;;;1.70;99.90;226.50;231333.00;;;;5034764;28;20631;-74
2022/11/27 07:16:32;;;;;;;0.10;0.10;;;1.70;99.90;226.50;231333.00;;;;5034614;28;20249;-74
2022/11/27 07:19:04;;;;;;;0.10;0.10;;;1.70;99.90;226.50;231333.00;;;;5036169;28;20234;-74
2022/11/27 07:21:33;;;;;;;0.10;0.10;;;1.70;99.90;226.50;231333.00;;;;5036659;28;20187;-74
2022/11/27 07:24:03;;;;;;;0.10;0.10;;;1.80;99.90;226.50;231333.00;;;;5037109;28;20270;-76
2022/11/27 07:26:31;;;;;;;0.10;0.10;;;1.80;99.90;226.50;231333.00;;;;5035189;28;20242;-74
2022/11/27 07:28:59;;;;;;;0.10;0.10;;;1.80;99.90;226.50;231333.00;;;;5039438;28;20203;-74
2022/11/27 07:31:30;;;;;;;0.10;0.10;;;1.80;99.90;226.50;231333.00;;;;5036621;28;20230;-74
2022/11/27 07:33:58;;;;;;;0.10;0.10;;;1.80;99.90;226.50;231333.00;;;;5034299;28;20210;-74
2022/11/27 07:36:29;;;;;;;0.10;0.10;;;1.80;99.90;226.50;231333.00;;;;5034076;28;20202;-74
2022/11/27 07:38:58;;;;;;;0.10;0.10;;;1.80;99.90;226.50;231333.00;;;;5034164;28;20199;-74
2022/11/27 07:41:27;;;;;;;0.10;0.10;;;1.90;99.90;226.50;231333.00;;;;5033701;28;20602;-74
2022/11/27 07:44:01;;;;;;;0.10;0.10;;;1.80;99.90;226.50;231333.00;;;;5033861;28;20222;-74
2022/11/27 07:46:30;;;;;;;0.10;0.10;;;1.90;99.90;226.50;231333.00;;;;5033723;28;20230;-74
2022/11/27 07:48:59;;;;;;;0.20;0.20;;;1.90;99.90;226.50;231333.00;;;;5033487;28;20187;-74
2022/11/27 07:51:27;;;;;;;0.10;0.10;;;1.90;99.90;226.50;231333.00;;;;5033715;28;20253;-74
2022/11/27 07:53:55;;;;;;;0.10;0.10;;;1.90;99.90;226.50;231333.00;;;;5034182;28;20276;-74
2022/11/27 07:56:24;;;;;;;0.10;0.10;;;2.00;99.90;226.50;231333.00;;;;5034496;28;20191;-74
2022/11/27 07:58:53;;;;;;;0.10;0.10;;;2.10;99.90;226.50;231333.00;;;;5035186;28;20270;-74
2022/11/27 08:01:21;;;;;;;0.10;0.10;;;2.10;99.90;226.50;231333.00;;;;5033881;28;20187;-74
2022/11/27 08:03:50;;;;;;;0.10;0.10;;;2.10;99.90;226.50;231333.00;;;;5033434;28;20227;-74
2022/11/27 08:06:21;;;;;;;0.10;0.10;;;2.10;99.90;226.50;231333.00;;;;5032183;28;20199;-74
2022/11/27 08:08:51;;;;;;;0.10;0.10;;;2.20;99.90;226.50;231333.00;;;;5033197;28;20214;-75
2022/11/27 08:11:22;;;;;;;0.10;0.10;;;2.20;99.90;226.50;231333.00;;;;5033214;28;20187;-75
2022/11/27 08:13:54;;;;;;;0.10;0.10;;;2.30;99.90;226.50;231333.00;;;;5033235;28;20223;-75
2022/11/27 08:16:24;;;;;;;0.10;0.10;;;2.20;99.90;226.50;231333.00;;;;5033297;28;20198;-75
2022/11/27 08:18:53;;;;;;;0.10;0.10;;;2.20;99.90;226.50;231333.00;;;;5033272;28;20306;-74
2022/11/27 08:21:21;;;;;;;0.10;0.10;;;2.30;99.90;226.50;231333.00;;;;5033279;28;20659;-74
2022/11/27 08:23:50;;;;;;;0.10;0.10;;;2.30;99.90;226.50;231333.00;;;;5033131;28;20223;-74
2022/11/27 08:26:19;;;;;;;0.10;0.10;;;2.40;99.90;226.50;231333.00;;;;5033294;28;20191;-74
2022/11/27 08:28:48;;;;;;;0.10;0.10;;;2.40;99.90;226.50;231333.00;;;;5032656;28;20642;-74
2022/11/27 08:31:16;;;;;;;0.10;0.10;;;2.40;99.90;226.50;231333.00;;;;5033218;28;20199;-73
2022/11/27 08:33:46;;;;;;;0.10;0.10;;;2.40;99.90;226.50;231333.00;;;;5031460;28;20309;-75
2022/11/27 08:36:14;;;;;;;0.10;0.10;;;2.40;99.90;226.50;231333.00;;;;5032872;28;20250;-75
2022/11/27 08:38:45;;;;;;;0.10;0.10;;;2.40;99.90;226.50;231333.00;;;;5032469;28;20409;-75
2022/11/27 08:41:14;;;;;;;0.10;0.10;;;2.40;99.90;226.50;231333.00;;;;5032782;28;20297;-75
2022/11/27 08:43:42;;;;;;;0.10;0.10;;;2.50;99.90;226.50;231333.00;;;;5032498;28;20721;-73
2022/11/27 08:46:11;;;;;;;0.10;0.10;;;2.50;99.90;226.50;231333.00;;;;5032909;28;20249;-73
2022/11/27 08:48:40;;;;;;;0.10;0.10;;;2.60;99.90;226.50;231333.00;;;;5032547;28;20191;-73
2022/11/27 08:51:12;;;;;;;0.10;0.10;;;2.60;99.90;226.50;231333.00;;;;5032746;28;20669;-72
2022/11/27 08:53:44;;;;;;;0.10;0.10;;;2.70;99.90;226.50;231333.00;;;;5032920;28;20215;-73
2022/11/27 08:56:17;;;;;;;0.10;0.10;;;2.70;99.90;226.50;231333.00;;;;5032706;28;20605;-73
2022/11/27 08:58:46;;;;;;;0.10;0.10;;;2.70;99.90;226.50;231333.00;;;;5049076;28;20659;-72
2022/11/27 09:01:17;;;;;;;0.10;0.10;;;2.80;99.90;226.50;231333.00;;;;5033051;28;20198;-75
2022/11/27 09:03:46;;;;;;;0.10;0.10;;;2.80;99.90;226.50;231333.00;;;;5032511;28;20213;-75
2022/11/27 09:06:20;;;;;;;0.10;0.10;;;2.90;99.90;226.50;231333.00;;;;5032413;28;20211;-77
2022/11/27 09:08:49;;;;;;;0.10;0.10;;;2.90;99.90;226.50;231333.00;;;;5032119;28;20191;-75
2022/11/27 09:11:20;;;;;;;0.10;0.10;;;2.90;99.90;226.50;231333.00;;;;5031983;28;20191;-75
2022/11/27 09:13:48;;;;;;;0.10;0.10;;;2.90;99.90;226.50;231333.00;;;;5033130;28;20215;-73
2022/11/27 09:16:20;;;;;;;0.10;0.10;;;2.90;99.90;226.50;231333.00;;;;5033411;28;20238;-74
2022/11/27 09:18:52;;;;;;;0.10;0.10;;;3.00;99.90;226.50;231333.00;;;;5031817;28;20560;-74
2022/11/27 09:21:26;;;;;;;0.10;0.10;;;3.10;99.90;226.50;231333.00;;;;5032242;28;20191;-74
2022/11/27 09:23:56;;;;;;;0.10;0.10;;;3.20;99.90;226.50;231333.00;;;;5031754;28;20223;-74
2022/11/27 09:26:26;;;;;;;0.10;0.10;;;3.20;99.90;226.50;231333.00;;;;5031725;28;20206;-76
2022/11/27 09:28:55;;;;;;;0.10;0.10;;;3.30;99.90;226.50;231333.00;;;;5031786;28;20194;-76
2022/11/27 09:31:24;;;;;;;0.10;0.10;;;3.40;99.90;226.50;231333.00;;;;5031933;28;20191;-76
2022/11/27 09:33:53;;;;;;;0.10;0.10;;;3.50;99.90;226.50;231333.00;;;;5031677;28;20211;-76
2022/11/27 09:36:25;;;;;;;0.10;0.10;;;3.50;99.90;226.50;231333.00;;;;5032049;28;20721;-76
2022/11/27 09:38:54;;;;;;;0.10;0.10;;;3.50;99.90;226.50;231333.00;;;;5031386;28;20198;-76
2022/11/27 09:41:46;;;;;;;0.10;0.10;;;3.60;99.90;226.50;231333.00;;;;5031889;28;20218;-76
2022/11/27 09:44:38;;;;;;;0.10;0.10;;;3.70;99.90;226.50;231333.00;;;;5031561;28;20269;-76
2022/11/27 09:47:16;;;;;;;0.10;0.10;;;3.70;99.90;226.50;231333.00;;;;5031507;28;20195;-76
2022/11/27 09:49:51;;;;;;;0.10;0.10;;;3.80;99.90;226.50;231333.00;;;;5031414;28;20658;-76
2022/11/27 09:52:29;;;;;;;0.10;0.10;;;3.90;99.90;226.50;231333.00;;;;5031589;28;20190;-76
2022/11/27 09:55:05;;;;;;;0.10;0.10;;;3.90;99.90;226.50;231333.00;;;;5033693;28;20219;-74
2022/11/27 09:57:38;;;;;;;0.10;0.10;;;4.00;99.90;226.50;231333.00;;;;5033481;28;20198;-74
2022/11/27 10:00:14;;;;;;;0.10;0.10;;;4.00;99.90;226.50;231333.00;;;;5032128;28;20184;-74
2022/11/27 10:02:43;;;;;;;0.10;0.10;;;4.00;99.90;226.50;231333.00;;;;5031502;28;20203;-73
2022/11/27 10:05:20;;;;;;;0.10;0.10;;;4.00;99.90;226.50;231333.00;;;;5031991;28;20215;-75
2022/11/27 10:08:23;;;;;;;0.10;0.10;;;4.00;99.90;226.50;231333.00;;;;5031676;28;20249;-73
2022/11/27 10:11:12;;;;;;;0.10;0.10;;;4.00;99.90;226.50;231333.00;;;;5033221;28;20198;-75
2022/11/27 10:13:59;;;;;;;0.10;0.10;;;4.10;99.90;226.50;231333.00;;;;5032943;28;20210;-73
2022/11/27 10:16:37;;;;;;;0.10;0.10;;;4.10;99.90;226.50;231333.00;;;;5032411;28;20191;-73
2022/11/27 10:19:31;;;;;;;0.10;0.10;;;4.20;99.90;226.50;231333.00;;;;5032230;28;20245;-73
2022/11/27 10:22:05;;;;;;;0.10;0.10;;;4.30;99.90;226.50;231333.00;;;;5032093;28;20202;-73
2022/11/27 10:24:46;;;;;;;0.10;0.10;;;4.40;99.90;226.50;231333.00;;;;5032037;28;20260;-73
2022/11/27 10:27:23;;;;;;;0.10;0.10;;;4.40;99.90;226.50;231333.00;;;;5032058;28;20252;-74
2022/11/27 10:29:55;;;;;;;0.10;0.10;;;4.50;99.90;226.50;231333.00;;;;5032575;28;20261;-75
2022/11/27 10:32:27;;;;;;;0.10;0.10;;;4.50;99.90;226.50;231333.00;;;;5035275;28;20188;-74
2022/11/27 10:35:19;;;;;;;0.10;0.10;;;4.70;99.90;226.50;231333.00;;;;5035595;28;20275;-73
2022/11/27 10:37:54;;;;;;;0.10;0.10;;;4.70;99.90;226.50;231333.00;;;;5032361;28;20187;-74
2022/11/27 10:40:31;;;;;;;0.10;0.10;;;4.60;99.90;226.50;160248.00;;;;5031955;28;20669;-73
2022/11/27 10:43:09;;;;;;;0.10;0.10;;;4.70;99.90;226.50;231333.00;;;;5031974;28;20568;-74
2022/11/27 10:45:44;;;;;;;0.10;0.10;;;4.60;99.90;226.50;231333.00;;;;5031789;28;20836;-73
2022/11/27 10:48:14;;;;;;;0.10;0.10;;;4.70;99.90;226.50;231333.00;;;;5031224;28;20195;-73
2022/11/27 10:50:44;;;;;;;0.10;0.10;;;4.70;99.90;226.50;231333.00;;;;5032145;28;20655;-74
2022/11/27 10:53:25;;;;;;;0.10;0.10;;;4.80;99.90;226.50;231333.00;;;;5034062;28;20211;-73
2022/11/27 10:56:39;;;;;;;0.10;0.10;;;4.90;99.90;226.50;231333.00;;;;5036340;28;20221;-75
2022/11/27 10:59:15;;;;;;;0.10;0.10;;;4.90;99.90;226.50;231333.00;;;;5037322;28;20190;-74
2022/11/27 11:01:46;;;;;;;0.10;0.10;;;5.00;99.90;226.50;231333.00;;;;5035308;28;20195;-73
2022/11/27 11:04:20;;;;;;;0.10;0.10;;;5.10;99.90;226.50;231333.00;;;;5035558;28;20220;-74
2022/11/27 11:07:25;;;;;;;0.10;0.10;;;5.20;99.90;226.50;231333.00;;;;5035337;28;20585;-74
2022/11/27 11:09:55;;;;;;;0.10;0.10;;;5.30;99.90;226.50;231333.00;;;;5035412;28;20215;-74